Terminal Aerodrome Forecast
Issued by NWS

Home | Current Version | Previous Version | Text Only | Print | Product List | Glossary On
Versions: 1 2 3 4 5 6 7 8 9 10 11 12
000
FTUS44 KSJT 011728
TAFBBD
TAF
KBBD 011728Z 0118/0218 03011KT P6SM BKN035
     FM020600 01013G19KT P6SM VCSH BKN035
     FM021200 34013KT P6SM BKN040
      AMD NOT SKED=

USA.gov is the U.S. government's official web portal to all federal, state and local government web resources and services.